createdAt,value
2023-09-06T00:00:56.829Z,6.97
2023-09-06T00:03:24.414Z,7.05
2023-09-06T00:05:51.510Z,7.32
2023-09-06T00:08:18.422Z,7.40
2023-09-06T00:10:45.455Z,7.97
2023-09-06T00:13:13.633Z,7.65
2023-09-06T00:15:40.767Z,8.00
2023-09-06T00:18:08.011Z,7.57
2023-09-06T00:20:35.833Z,7.43
2023-09-06T00:23:06.018Z,7.45
2023-09-06T00:25:33.209Z,7.88
2023-09-06T00:28:01.698Z,7.63
2023-09-06T00:30:29.287Z,7.93
2023-09-06T00:32:56.448Z,7.70
2023-09-06T00:35:25.472Z,7.82
2023-09-06T00:37:55.603Z,7.57
2023-09-06T00:40:23.074Z,7.28
2023-09-06T00:42:54.681Z,7.72
2023-09-06T00:45:27.537Z,6.85
2023-09-06T00:47:56.469Z,8.02
2023-09-06T00:50:23.535Z,7.22
2023-09-06T00:52:51.995Z,6.97
2023-09-06T00:55:19.915Z,7.28
2023-09-06T00:57:47.202Z,7.72
2023-09-06T01:00:19.111Z,6.82
2023-09-06T01:02:48.188Z,6.90
2023-09-06T01:05:17.800Z,6.97
2023-09-06T01:07:51.777Z,7.00
2023-09-06T01:10:19.162Z,6.80
2023-09-06T01:12:46.160Z,6.70
2023-09-06T01:15:13.354Z,7.40
2023-09-06T01:17:42.917Z,6.90
2023-09-06T01:20:25.048Z,7.75
2023-09-06T01:23:05.304Z,8.30
2023-09-06T01:25:32.258Z,8.52
2023-09-06T01:27:59.385Z,8.57
2023-09-06T01:30:30.806Z,7.90
2023-09-06T01:32:57.794Z,8.48
2023-09-06T01:35:24.795Z,7.78
2023-09-06T01:37:51.786Z,8.05
2023-09-06T01:40:19.102Z,8.20
2023-09-06T01:42:46.106Z,8.05
2023-09-06T01:45:15.913Z,8.63
2023-09-06T01:47:42.846Z,8.60
2023-09-06T01:50:10.107Z,8.40
2023-09-06T01:52:38.005Z,8.45
2023-09-06T01:55:06.282Z,8.68
2023-09-06T01:57:33.354Z,9.02
2023-09-06T02:00:00.270Z,8.73
2023-09-06T02:02:27.216Z,8.75
2023-09-06T02:04:54.961Z,8.80
2023-09-06T02:07:21.962Z,9.27
2023-09-06T02:09:49.044Z,8.93
2023-09-06T02:12:15.972Z,9.63
2023-09-06T02:14:42.915Z,9.35
2023-09-06T02:17:09.913Z,9.80
2023-09-06T02:19:36.996Z,10.05
2023-09-06T02:22:04.694Z,10.07
2023-09-06T02:24:31.545Z,11.00
2023-09-06T02:26:59.690Z,11.77
2023-09-06T02:29:29.239Z,11.13
2023-09-06T02:31:56.268Z,10.93
2023-09-06T02:34:23.329Z,11.90
2023-09-06T02:36:50.423Z,10.63
2023-09-06T02:39:17.276Z,9.95
2023-09-06T02:41:44.200Z,9.68
2023-09-06T02:44:11.217Z,9.70
2023-09-06T02:46:39.501Z,9.27
2023-09-06T02:49:13.447Z,8.95
2023-09-06T02:51:43.850Z,9.05
2023-09-06T02:54:10.967Z,9.00
2023-09-06T02:56:38.819Z,9.00
2023-09-06T02:59:09.075Z,8.98
2023-09-06T03:01:39.292Z,9.15
2023-09-06T03:04:08.071Z,8.68
2023-09-06T03:06:35.439Z,8.65
2023-09-06T03:09:08.613Z,8.70
2023-09-06T03:11:37.166Z,9.33
2023-09-06T03:14:05.077Z,8.88
2023-09-06T03:16:39.810Z,8.35
2023-09-06T03:19:11.843Z,9.27
2023-09-06T03:21:38.925Z,8.95
2023-09-06T03:24:13.526Z,9.55
2023-09-06T03:26:45.576Z,9.48
2023-09-06T03:29:16.361Z,9.82
2023-09-06T03:31:44.139Z,8.70
2023-09-06T03:34:16.721Z,9.48
2023-09-06T03:36:52.884Z,9.00
2023-09-06T03:39:21.313Z,9.15
2023-09-06T03:41:49.672Z,9.27
2023-09-06T03:44:17.371Z,9.73
2023-09-06T03:46:44.786Z,9.80
2023-09-06T03:49:14.386Z,9.32
2023-09-06T03:51:41.394Z,9.52
2023-09-06T03:54:08.307Z,10.50
2023-09-06T03:56:39.165Z,10.98
2023-09-06T03:59:09.608Z,10.30
2023-09-06T04:01:37.513Z,11.68
2023-09-06T04:04:05.554Z,10.48
2023-09-06T04:06:32.749Z,12.45
2023-09-06T04:09:00.056Z,12.15
2023-09-06T04:11:27.045Z,10.75
2023-09-06T04:13:56.986Z,11.80
2023-09-06T04:16:26.401Z,11.32
2023-09-06T04:18:53.669Z,11.88
2023-09-06T04:21:21.275Z,12.10
2023-09-06T04:23:49.925Z,12.05
2023-09-06T04:26:21.310Z,12.10
2023-09-06T04:28:49.177Z,11.80
2023-09-06T04:31:19.310Z,12.10
2023-09-06T04:33:47.807Z,11.75
2023-09-06T04:36:20.276Z,12.02
2023-09-06T04:38:50.365Z,11.52
2023-09-06T04:41:17.426Z,11.85
2023-09-06T04:43:52.419Z,12.32
2023-09-06T04:46:20.368Z,11.52
2023-09-06T04:48:50.210Z,11.57
2023-09-06T04:51:17.133Z,11.32
2023-09-06T04:53:45.235Z,10.73
2023-09-06T04:56:14.745Z,10.95
2023-09-06T04:58:50.127Z,10.20
2023-09-06T05:01:17.013Z,9.27
2023-09-06T05:03:47.447Z,10.40
2023-09-06T05:06:14.767Z,11.32
2023-09-06T05:08:42.863Z,11.18
2023-09-06T05:11:17.583Z,11.05
2023-09-06T05:13:47.782Z,10.45
2023-09-06T05:16:14.973Z,11.40
2023-09-06T05:18:42.074Z,11.05
2023-09-06T05:21:09.185Z,10.70
2023-09-06T05:23:38.492Z,10.02
2023-09-06T05:26:08.035Z,11.68
2023-09-06T05:28:45.092Z,10.93
2023-09-06T05:31:13.732Z,12.10
2023-09-06T05:33:46.290Z,11.25
2023-09-06T05:36:15.701Z,11.30
2023-09-06T05:38:43.099Z,11.63
2023-09-06T05:41:12.961Z,12.25
2023-09-06T05:43:42.797Z,12.30
2023-09-06T05:46:29.758Z,12.52
2023-09-06T05:48:58.852Z,12.45
2023-09-06T05:51:31.524Z,12.73
2023-09-06T05:54:01.797Z,12.27
2023-09-06T05:56:29.869Z,13.13
2023-09-06T05:58:56.849Z,13.57
2023-09-06T06:01:23.833Z,12.70
2023-09-06T06:03:50.899Z,12.82
2023-09-06T06:06:19.531Z,14.82
2023-09-06T06:08:46.476Z,15.65
2023-09-06T06:11:13.437Z,14.20
2023-09-06T06:13:40.518Z,15.00
2023-09-06T06:16:09.659Z,15.40
2023-09-06T06:18:36.705Z,15.40
2023-09-06T06:21:05.153Z,16.40
2023-09-06T06:23:32.286Z,15.20
2023-09-06T06:25:59.342Z,14.90
2023-09-06T06:28:26.465Z,14.55
2023-09-06T06:30:53.599Z,14.35
2023-09-06T06:33:20.614Z,14.68
2023-09-06T06:35:47.754Z,16.83
2023-09-06T06:38:14.739Z,18.25
2023-09-06T06:40:41.887Z,16.92
2023-09-06T06:43:08.849Z,16.80
2023-09-06T06:45:36.199Z,17.80
2023-09-06T06:48:03.444Z,16.63
2023-09-06T06:50:30.382Z,16.40
2023-09-06T06:52:57.376Z,18.30
2023-09-06T06:55:24.461Z,18.00
2023-09-06T06:57:51.490Z,17.17
2023-09-06T07:00:18.935Z,17.92
2023-09-06T07:02:46.763Z,17.05
2023-09-06T07:05:14.193Z,17.35
2023-09-06T07:07:41.286Z,18.75
2023-09-06T07:10:09.125Z,18.08
2023-09-06T07:12:36.853Z,19.02
2023-09-06T07:15:04.375Z,18.48
2023-09-06T07:17:31.466Z,19.73
2023-09-06T07:19:59.655Z,24.88
2023-09-06T07:22:27.020Z,25.52
2023-09-06T07:24:54.079Z,23.55
2023-09-06T07:27:22.253Z,25.88
2023-09-06T07:29:49.547Z,29.80
2023-09-06T07:32:16.555Z,28.45
2023-09-06T07:34:43.668Z,29.95
2023-09-06T07:37:11.313Z,25.33
2023-09-06T07:39:38.898Z,30.20
2023-09-06T07:42:08.954Z,29.58
2023-09-06T07:44:37.177Z,27.10
2023-09-06T07:47:04.578Z,28.63
2023-09-06T07:49:32.641Z,29.45
2023-09-06T07:52:01.391Z,29.73
2023-09-06T07:54:28.336Z,28.38
2023-09-06T07:56:55.202Z,28.92
2023-09-06T07:59:23.658Z,29.33
2023-09-06T08:01:50.787Z,28.52
2023-09-06T08:04:20.394Z,28.17
2023-09-06T08:06:47.800Z,27.88
2023-09-06T08:09:15.111Z,26.30
2023-09-06T08:11:42.141Z,25.55
2023-09-06T08:14:09.178Z,29.30
2023-09-06T08:16:36.052Z,26.13
2023-09-06T08:19:04.483Z,27.15
2023-09-06T08:21:31.806Z,27.13
2023-09-06T08:23:58.925Z,27.73
2023-09-06T08:26:26.213Z,29.40
2023-09-06T08:28:54.112Z,29.58
2023-09-06T08:31:21.215Z,29.42
2023-09-06T08:33:49.518Z,28.70
2023-09-06T08:36:16.667Z,28.45
2023-09-06T08:38:43.657Z,26.70
2023-09-06T08:41:10.651Z,27.58
2023-09-06T08:43:40.517Z,26.98
2023-09-06T08:46:39.513Z,26.42
2023-09-06T08:49:06.622Z,24.00
2023-09-06T08:51:36.899Z,25.52
2023-09-06T08:54:05.918Z,23.98
2023-09-06T08:56:33.818Z,25.75
2023-09-06T08:59:00.890Z,24.17
2023-09-06T09:01:29.652Z,23.25
2023-09-06T09:03:57.039Z,22.63
2023-09-06T09:06:24.112Z,21.98
2023-09-06T09:08:51.367Z,23.75
2023-09-06T09:11:21.239Z,20.63
2023-09-06T09:13:48.416Z,21.98
2023-09-06T09:16:18.069Z,21.63
2023-09-06T09:18:45.622Z,21.60
2023-09-06T09:21:13.452Z,19.92
2023-09-06T09:24:00.650Z,18.95
2023-09-06T09:26:27.520Z,21.27
2023-09-06T09:28:55.510Z,21.23
2023-09-06T09:31:22.446Z,19.88
2023-09-06T09:33:52.624Z,19.75
2023-09-06T09:36:19.742Z,20.10
2023-09-06T09:38:54.084Z,19.30
2023-09-06T09:41:21.318Z,18.23
2023-09-06T09:43:48.415Z,17.35
2023-09-06T09:46:28.652Z,17.55
2023-09-06T09:49:00.249Z,17.88
2023-09-06T09:51:27.310Z,15.48
2023-09-06T09:53:54.304Z,15.68
2023-09-06T09:56:21.233Z,15.45
2023-09-06T09:58:48.202Z,15.65
2023-09-06T10:01:16.357Z,14.45
2023-09-06T10:03:45.062Z,15.85
2023-09-06T10:06:12.470Z,15.45
2023-09-06T10:08:39.553Z,14.75
2023-09-06T10:11:07.518Z,14.68
2023-09-06T10:13:35.282Z,12.60
2023-09-06T10:16:02.469Z,12.98
2023-09-06T10:18:29.832Z,12.43
2023-09-06T10:20:57.293Z,13.23
2023-09-06T10:23:24.550Z,12.80
2023-09-06T10:25:52.906Z,12.18
2023-09-06T10:28:26.026Z,14.23
2023-09-06T10:31:08.940Z,13.80
2023-09-06T10:33:45.394Z,12.35
2023-09-06T10:36:19.126Z,11.85
2023-09-06T10:39:15.436Z,13.77
2023-09-06T10:42:14.787Z,13.50
2023-09-06T10:44:57.147Z,11.35
2023-09-06T10:47:37.470Z,12.80
2023-09-06T10:50:08.547Z,11.75
2023-09-06T10:53:07.485Z,14.33
2023-09-06T10:55:44.676Z,12.85
2023-09-06T10:58:12.347Z,14.75
2023-09-06T11:00:40.038Z,13.40
2023-09-06T11:03:10.756Z,13.95
2023-09-06T11:05:40.026Z,13.73
2023-09-06T11:08:09.381Z,12.80
2023-09-06T11:10:36.780Z,11.32
2023-09-06T11:13:13.819Z,10.95
2023-09-06T11:15:41.058Z,11.90
2023-09-06T11:18:08.899Z,11.55
2023-09-06T11:20:36.113Z,11.18
2023-09-06T11:23:03.634Z,12.57
2023-09-06T11:25:31.824Z,12.82
2023-09-06T11:28:01.078Z,13.93
2023-09-06T11:30:28.314Z,12.90
2023-09-06T11:32:56.390Z,12.10
2023-09-06T11:35:33.601Z,10.40
2023-09-06T11:38:00.549Z,8.88
2023-09-06T11:40:29.646Z,10.85
2023-09-06T11:42:58.888Z,9.57
2023-09-06T11:45:26.981Z,9.48
2023-09-06T11:48:00.534Z,11.10
2023-09-06T11:53:05.645Z,10.20
2023-09-06T11:55:35.862Z,9.40
2023-09-06T11:58:03.126Z,10.70
2023-09-06T12:00:44.856Z,9.80
2023-09-06T12:03:14.427Z,10.25
2023-09-06T12:05:49.816Z,7.78
2023-09-06T12:08:21.736Z,7.90
2023-09-06T12:10:53.711Z,8.18
2023-09-06T12:13:32.029Z,8.88
2023-09-06T12:15:59.732Z,7.22
2023-09-06T12:18:29.509Z,8.38
2023-09-06T12:20:58.065Z,11.02
2023-09-06T12:23:27.849Z,9.35
2023-09-06T12:25:54.801Z,8.90
2023-09-06T12:28:21.722Z,9.43
2023-09-06T12:30:50.096Z,9.15
2023-09-06T12:33:17.171Z,8.13
2023-09-06T12:35:46.165Z,6.90
2023-09-06T12:38:13.243Z,6.80
2023-09-06T12:40:40.620Z,7.47
2023-09-06T12:43:07.962Z,9.10
2023-09-06T12:45:35.307Z,8.52
2023-09-06T12:48:02.472Z,7.68
2023-09-06T12:50:29.841Z,7.05
2023-09-06T12:52:59.783Z,8.07
2023-09-06T12:55:27.896Z,7.50
2023-09-06T12:57:54.943Z,11.48
2023-09-06T13:00:22.046Z,6.93
2023-09-06T13:02:49.027Z,7.45
2023-09-06T13:05:21.652Z,7.10
2023-09-06T13:07:48.878Z,7.07
2023-09-06T13:10:17.883Z,19.90
2023-09-06T13:12:45.622Z,6.85
2023-09-06T13:15:15.107Z,6.97
2023-09-06T13:17:42.217Z,6.50
2023-09-06T13:20:12.076Z,6.60
2023-09-06T13:22:39.841Z,7.05
2023-09-06T13:25:10.515Z,7.65
2023-09-06T13:27:39.824Z,6.63
2023-09-06T13:30:07.278Z,6.97
2023-09-06T13:32:34.302Z,6.80
2023-09-06T13:35:01.354Z,6.45
2023-09-06T13:37:28.572Z,6.38
2023-09-06T13:39:55.598Z,6.63
2023-09-06T13:42:24.683Z,6.38
2023-09-06T13:44:51.661Z,6.75
2023-09-06T13:47:18.735Z,6.63
2023-09-06T13:49:45.755Z,7.35
2023-09-06T13:52:15.603Z,7.00
2023-09-06T13:54:44.631Z,6.72
2023-09-06T13:57:11.619Z,6.95
2023-09-06T13:59:39.441Z,6.53
2023-09-06T14:02:09.457Z,6.78
2023-09-06T14:04:36.952Z,6.82
2023-09-06T14:07:04.324Z,7.60
2023-09-06T14:09:31.627Z,6.50
2023-09-06T14:11:58.630Z,7.25
2023-09-06T14:14:25.571Z,7.78
2023-09-06T14:16:53.729Z,6.97
2023-09-06T14:19:29.350Z,6.45
2023-09-06T14:21:57.118Z,7.10
2023-09-06T14:24:24.095Z,6.57
2023-09-06T14:26:51.026Z,6.57
2023-09-06T14:29:18.081Z,7.00
2023-09-06T14:31:47.694Z,6.60
2023-09-06T14:34:16.730Z,6.10
2023-09-06T14:36:43.819Z,6.00
2023-09-06T14:39:10.785Z,6.30
2023-09-06T14:41:37.929Z,6.22
2023-09-06T14:44:06.385Z,6.88
2023-09-06T14:46:36.555Z,6.65
2023-09-06T14:49:03.610Z,6.78
2023-09-06T14:51:30.644Z,6.90
2023-09-06T14:53:57.853Z,5.90
2023-09-06T14:56:24.820Z,6.05
2023-09-06T14:58:51.768Z,6.00
2023-09-06T15:01:18.783Z,6.07
2023-09-06T15:03:46.038Z,5.70
2023-09-06T15:06:14.673Z,5.85
2023-09-06T15:08:42.450Z,5.80
2023-09-06T15:11:10.286Z,6.43
2023-09-06T15:13:37.383Z,6.57
2023-09-06T15:16:04.501Z,5.50
2023-09-06T15:18:31.953Z,6.22
2023-09-06T15:21:04.001Z,5.85
2023-09-06T15:23:31.166Z,5.57
2023-09-06T15:25:59.371Z,5.45
2023-09-06T15:28:27.303Z,6.15
2023-09-06T15:30:54.736Z,5.78
2023-09-06T15:33:25.075Z,5.68
2023-09-06T15:35:55.954Z,6.18
2023-09-06T15:38:23.287Z,6.57
2023-09-06T15:40:52.879Z,5.90
2023-09-06T15:43:20.536Z,6.10
2023-09-06T15:45:47.478Z,6.40
2023-09-06T15:48:17.222Z,6.00
2023-09-06T15:50:44.303Z,6.30
2023-09-06T15:53:11.354Z,5.95
2023-09-06T15:55:38.416Z,6.60
2023-09-06T15:58:06.367Z,5.82
2023-09-06T16:00:33.518Z,5.63
2023-09-06T16:03:00.943Z,6.05
2023-09-06T16:05:31.879Z,6.00
2023-09-06T16:08:01.929Z,6.00
2023-09-06T16:10:29.020Z,6.25
2023-09-06T16:12:56.464Z,5.95
2023-09-06T16:15:24.261Z,6.07
2023-09-06T16:17:55.012Z,5.97
2023-09-06T16:20:22.075Z,5.65
2023-09-06T16:22:49.053Z,5.95
2023-09-06T16:25:16.085Z,5.97
2023-09-06T16:27:44.093Z,6.05
2023-09-06T16:30:11.559Z,6.07
2023-09-06T16:32:39.166Z,5.40
2023-09-06T16:35:09.346Z,5.95
2023-09-06T16:37:39.691Z,5.30
2023-09-06T16:40:12.587Z,5.63
2023-09-06T16:42:41.064Z,5.93
2023-09-06T16:45:08.952Z,5.90
2023-09-06T16:47:35.911Z,5.43
2023-09-06T16:50:05.434Z,5.80
2023-09-06T16:52:32.626Z,6.07
2023-09-06T16:55:00.826Z,5.80
2023-09-06T16:57:27.856Z,5.30
2023-09-06T16:59:54.850Z,5.60
2023-09-06T17:02:24.084Z,5.50
2023-09-06T17:04:51.592Z,5.40
2023-09-06T17:07:18.577Z,5.25
2023-09-06T17:09:48.887Z,5.57
2023-09-06T17:12:16.143Z,5.80
2023-09-06T17:14:43.248Z,5.60
2023-09-06T17:17:10.380Z,5.25
2023-09-06T17:19:37.537Z,5.85
2023-09-06T17:22:04.616Z,5.72
2023-09-06T17:24:31.610Z,5.95
2023-09-06T17:26:58.681Z,5.63
2023-09-06T17:29:25.807Z,5.40
2023-09-06T17:31:54.949Z,5.45
2023-09-06T17:34:22.962Z,5.20
2023-09-06T17:36:58.023Z,5.38
2023-09-06T17:39:28.314Z,5.60
2023-09-06T17:41:55.232Z,5.55
2023-09-06T17:44:22.545Z,5.75
2023-09-06T17:46:51.890Z,5.57
2023-09-06T17:51:52.962Z,5.50
2023-09-06T17:54:24.507Z,6.05
2023-09-06T17:56:52.484Z,5.97
2023-09-06T17:59:21.694Z,5.93
2023-09-06T18:01:48.887Z,6.10
2023-09-06T18:04:16.293Z,5.55
2023-09-06T18:06:43.425Z,7.85
2023-09-06T18:09:11.382Z,6.90
2023-09-06T18:11:39.837Z,6.32
2023-09-06T18:14:11.942Z,6.22
2023-09-06T18:16:43.365Z,6.43
2023-09-06T18:19:10.851Z,6.00
2023-09-06T18:21:44.382Z,6.75
2023-09-06T18:24:15.640Z,5.82
2023-09-06T18:26:48.562Z,5.93
2023-09-06T18:29:21.564Z,5.45
2023-09-06T18:31:48.567Z,6.40
2023-09-06T18:34:15.788Z,6.35
2023-09-06T18:36:43.220Z,6.60
2023-09-06T18:39:16.030Z,6.22
2023-09-06T18:41:43.476Z,5.95
2023-09-06T18:44:10.369Z,6.50
2023-09-06T18:46:37.395Z,6.20
2023-09-06T18:49:08.291Z,6.38
2023-09-06T18:51:35.763Z,6.78
2023-09-06T18:54:02.683Z,6.20
2023-09-06T18:56:35.244Z,6.63
2023-09-06T18:59:02.452Z,7.30
2023-09-06T19:01:31.699Z,7.13
2023-09-06T19:03:59.261Z,8.05
2023-09-06T19:06:35.284Z,8.18
2023-09-06T19:09:02.278Z,7.60
2023-09-06T19:11:29.443Z,8.60
2023-09-06T19:13:58.969Z,8.32
2023-09-06T19:16:27.952Z,8.52
2023-09-06T19:18:57.141Z,8.70
2023-09-06T19:21:24.336Z,8.32
2023-09-06T19:23:51.401Z,8.45
2023-09-06T19:26:18.475Z,8.23
2023-09-06T19:28:47.595Z,8.25
2023-09-06T19:31:14.747Z,8.70
2023-09-06T19:33:41.662Z,8.90
2023-09-06T19:36:08.619Z,8.55
2023-09-06T19:38:35.704Z,9.52
2023-09-06T19:41:02.710Z,9.30
2023-09-06T19:43:29.827Z,9.90
2023-09-06T19:45:57.099Z,9.00
2023-09-06T19:48:24.631Z,8.80
2023-09-06T19:50:51.811Z,9.50
2023-09-06T19:53:24.314Z,9.05
2023-09-06T19:55:53.886Z,10.25
2023-09-06T19:58:20.990Z,9.07
2023-09-06T20:00:48.329Z,9.60
2023-09-06T20:03:15.716Z,9.15
2023-09-06T20:05:43.268Z,10.25
2023-09-06T20:08:12.439Z,9.02
2023-09-06T20:10:50.236Z,9.80
2023-09-06T20:13:19.282Z,9.52
2023-09-06T20:15:46.312Z,10.98
2023-09-06T20:18:16.032Z,11.43
2023-09-06T20:20:44.522Z,10.68
2023-09-06T20:23:11.810Z,11.07
2023-09-06T20:25:39.250Z,11.45
2023-09-06T20:28:09.214Z,11.60
2023-09-06T20:30:42.479Z,11.38
2023-09-06T20:33:10.290Z,11.25
2023-09-06T20:35:42.501Z,10.95
2023-09-06T20:38:09.693Z,11.13
2023-09-06T20:40:39.077Z,10.85
2023-09-06T20:43:06.106Z,10.43
2023-09-06T20:45:34.126Z,11.95
2023-09-06T20:48:03.817Z,11.35
2023-09-06T20:50:30.945Z,11.65
2023-09-06T20:52:59.938Z,11.80
2023-09-06T20:55:28.135Z,12.32
2023-09-06T20:57:55.155Z,13.55
2023-09-06T21:00:24.325Z,13.05
2023-09-06T21:02:53.828Z,13.77
2023-09-06T21:05:20.788Z,12.98
2023-09-06T21:07:50.091Z,13.25
2023-09-06T21:10:17.153Z,13.25
2023-09-06T21:12:44.130Z,13.18
2023-09-06T21:15:11.495Z,13.45
2023-09-06T21:17:38.447Z,12.98
2023-09-06T21:20:06.336Z,14.70
2023-09-06T21:22:33.573Z,13.00
2023-09-06T21:25:03.609Z,13.32
2023-09-06T21:27:32.635Z,14.48
2023-09-06T21:29:59.602Z,17.35
2023-09-06T21:32:26.593Z,20.35
2023-09-06T21:34:53.572Z,21.45
2023-09-06T21:37:20.561Z,21.27
2023-09-06T21:39:47.488Z,23.27
2023-09-06T21:42:16.539Z,22.98
2023-09-06T21:44:43.627Z,21.48
2023-09-06T21:47:12.610Z,22.45
2023-09-06T21:49:39.688Z,23.35
2023-09-06T21:52:09.256Z,25.05
2023-09-06T21:54:39.042Z,28.88
2023-09-06T21:57:06.291Z,29.83
2023-09-06T21:59:33.342Z,30.02
2023-09-06T22:02:00.335Z,30.58
2023-09-06T22:04:46.214Z,30.35
2023-09-06T22:07:31.907Z,34.10
2023-09-06T22:10:17.563Z,35.60
2023-09-06T22:13:04.110Z,37.83
2023-09-06T22:15:31.668Z,37.67
2023-09-06T22:17:58.875Z,39.78
2023-09-06T22:20:31.194Z,41.33
2023-09-06T22:22:58.556Z,38.88
2023-09-06T22:25:25.869Z,38.83
2023-09-06T22:27:53.007Z,39.97
2023-09-06T22:30:20.599Z,44.58
2023-09-06T22:32:47.741Z,44.47
2023-09-06T22:35:14.683Z,43.47
2023-09-06T22:37:42.771Z,46.30
2023-09-06T22:40:13.395Z,48.38
2023-09-06T22:42:40.444Z,45.03
2023-09-06T22:45:07.640Z,47.75
2023-09-06T22:47:34.579Z,44.72
2023-09-06T22:50:01.515Z,50.60
2023-09-06T22:52:28.499Z,47.53
2023-09-06T22:54:56.143Z,49.30
2023-09-06T22:57:23.360Z,50.25
2023-09-06T22:59:50.222Z,53.22
2023-09-06T23:02:17.121Z,55.55
2023-09-06T23:04:45.015Z,50.28
2023-09-06T23:07:12.134Z,52.97
2023-09-06T23:09:39.052Z,53.03
2023-09-06T23:12:06.427Z,55.17
2023-09-06T23:14:38.079Z,52.70
2023-09-06T23:19:44.969Z,56.80
2023-09-06T23:22:15.512Z,57.45
2023-09-06T23:24:45.101Z,59.38
2023-09-06T23:27:18.770Z,59.92
2023-09-06T23:29:51.855Z,60.05
2023-09-06T23:32:21.140Z,60.28
2023-09-06T23:34:50.539Z,58.17
2023-09-06T23:37:18.362Z,60.63
2023-09-06T23:39:48.326Z,60.92
2023-09-06T23:42:17.932Z,61.80
2023-09-06T23:44:47.166Z,69.70
2023-09-06T23:47:16.920Z,67.30
2023-09-06T23:49:46.630Z,66.65
2023-09-06T23:52:14.374Z,68.78
2023-09-06T23:54:47.943Z,64.30
2023-09-06T23:57:18.641Z,69.65
2023-09-06T23:59:46.874Z,70.68
